sensor_id;sensor_type;location;lat;lon;timestamp;P1;P2;P0
42002;PMS7003;27693;50.506;30.832;2023-04-03T00:00:42;11.10;10.40;7.70
42002;PMS7003;27693;50.506;30.832;2023-04-03T00:01:44;11.70;9.90;7.70
42002;PMS7003;27693;50.506;30.832;2023-04-03T00:02:47;11.80;10.10;7.30
42002;PMS7003;27693;50.506;30.832;2023-04-03T00:03:49;11.20;9.20;7.30
42002;PMS7003;27693;50.506;30.832;2023-04-03T00:04:53;11.10;9.90;8.10
42002;PMS7003;27693;50.506;30.832;2023-04-03T00:05:57;11.50;9.50;7.70
42002;PMS7003;27693;50.506;30.832;2023-04-03T00:07:01;11.10;9.50;7.20
42002;PMS7003;27693;50.506;30.832;2023-04-03T00:08:04;11.00;9.70;7.80
42002;PMS7003;27693;50.506;30.832;2023-04-03T00:09:09;10.00;9.50;7.70
42002;PMS7003;27693;50.506;30.832;2023-04-03T00:10:13;11.50;10.60;8.30
42002;PMS7003;27693;50.506;30.832;2023-04-03T00:11:17;10.40;9.00;7.70
42002;PMS7003;27693;50.506;30.832;2023-04-03T00:12:20;11.40;9.90;7.60
42002;PMS7003;27693;50.506;30.832;2023-04-03T00:13:24;10.00;9.50;7.70
42002;PMS7003;27693;50.506;30.832;2023-04-03T00:14:26;10.45;8.73;7.09
42002;PMS7003;27693;50.506;30.832;2023-04-03T00:15:29;14.40;10.10;6.90
42002;PMS7003;27693;50.506;30.832;2023-04-03T00:16:31;14.60;11.00;8.60
42002;PMS7003;27693;50.506;30.832;2023-04-03T00:17:33;11.80;9.90;7.90
42002;PMS7003;27693;50.506;30.832;2023-04-03T00:18:37;7.40;7.40;5.20
42002;PMS7003;27693;50.506;30.832;2023-04-03T00:19:42;10.70;10.20;7.80
42002;PMS7003;27693;50.506;30.832;2023-04-03T00:20:44;12.20;10.30;8.50
42002;PMS7003;27693;50.506;30.832;2023-04-03T00:21:46;12.50;10.60;8.00
42002;PMS7003;27693;50.506;30.832;2023-04-03T00:22:49;10.30;9.80;7.90
42002;PMS7003;27693;50.506;30.832;2023-04-03T00:23:52;10.64;9.36;8.27
42002;PMS7003;27693;50.506;30.832;2023-04-03T00:24:54;10.40;9.30;7.40
42002;PMS7003;27693;50.506;30.832;2023-04-03T00:25:58;12.90;10.40;8.70
42002;PMS7003;27693;50.506;30.832;2023-04-03T00:27:00;11.80;9.60;7.80
42002;PMS7003;27693;50.506;30.832;2023-04-03T00:28:03;11.00;11.00;9.10
42002;PMS7003;27693;50.506;30.832;2023-04-03T00:29:06;10.50;9.80;8.50
42002;PMS7003;27693;50.506;30.832;2023-04-03T00:30:10;10.70;10.70;8.40
42002;PMS7003;27693;50.506;30.832;2023-04-03T00:31:15;11.80;11.10;7.90
42002;PMS7003;27693;50.506;30.832;2023-04-03T00:32:18;8.60;7.20;5.90
42002;PMS7003;27693;50.506;30.832;2023-04-03T00:33:21;11.18;9.27;7.00
42002;PMS7003;27693;50.506;30.832;2023-04-03T00:34:24;14.00;10.40;8.30
42002;PMS7003;27693;50.506;30.832;2023-04-03T00:35:27;13.20;10.80;8.70
42002;PMS7003;27693;50.506;30.832;2023-04-03T00:36:30;12.18;9.45;7.55
42002;PMS7003;27693;50.506;30.832;2023-04-03T00:37:32;13.50;9.50;7.20
42002;PMS7003;27693;50.506;30.832;2023-04-03T00:38:35;11.80;10.20;8.00
42002;PMS7003;27693;50.506;30.832;2023-04-03T00:39:38;11.90;10.40;7.20
42002;PMS7003;27693;50.506;30.832;2023-04-03T00:40:42;15.10;10.60;7.80
42002;PMS7003;27693;50.506;30.832;2023-04-03T00:41:47;11.70;10.40;8.80
42002;PMS7003;27693;50.506;30.832;2023-04-03T00:42:51;10.70;9.40;7.00
42002;PMS7003;27693;50.506;30.832;2023-04-03T00:43:58;12.20;10.50;7.90
42002;PMS7003;27693;50.506;30.832;2023-04-03T00:46:06;11.70;10.10;8.00
42002;PMS7003;27693;50.506;30.832;2023-04-03T00:47:11;14.50;11.90;9.10
42002;PMS7003;27693;50.506;30.832;2023-04-03T00:48:20;11.40;10.90;9.40
42002;PMS7003;27693;50.506;30.832;2023-04-03T00:49:24;10.80;10.50;8.60
42002;PMS7003;27693;50.506;30.832;2023-04-03T00:50:28;12.30;10.10;8.20
42002;PMS7003;27693;50.506;30.832;2023-04-03T00:51:32;5.10;4.80;2.30
42002;PMS7003;27693;50.506;30.832;2023-04-03T00:52:36;12.00;9.30;7.10
42002;PMS7003;27693;50.506;30.832;2023-04-03T00:53:47;7.60;6.10;4.20
42002;PMS7003;27693;50.506;30.832;2023-04-03T00:54:49;13.50;10.80;8.40
42002;PMS7003;27693;50.506;30.832;2023-04-03T00:55:55;11.30;10.50;8.20
42002;PMS7003;27693;50.506;30.832;2023-04-03T00:56:59;9.60;9.10;7.10
42002;PMS7003;27693;50.506;30.832;2023-04-03T00:58:04;12.90;10.60;8.50
42002;PMS7003;27693;50.506;30.832;2023-04-03T00:59:13;5.90;2.50;1.20
42002;PMS7003;27693;50.506;30.832;2023-04-03T01:00:18;13.60;10.40;8.10
42002;PMS7003;27693;50.506;30.832;2023-04-03T01:01:23;13.20;9.70;7.40
42002;PMS7003;27693;50.506;30.832;2023-04-03T01:02:28;11.90;10.20;7.90
42002;PMS7003;27693;50.506;30.832;2023-04-03T01:03:31;12.45;10.64;9.00
42002;PMS7003;27693;50.506;30.832;2023-04-03T01:04:39;11.30;10.40;8.00
42002;PMS7003;27693;50.506;30.832;2023-04-03T01:05:44;12.90;11.40;8.60
42002;PMS7003;27693;50.506;30.832;2023-04-03T01:06:47;12.64;11.55;8.64
42002;PMS7003;27693;50.506;30.832;2023-04-03T01:07:50;11.45;10.36;7.91
42002;PMS7003;27693;50.506;30.832;2023-04-03T01:08:53;11.70;10.80;7.90
42002;PMS7003;27693;50.506;30.832;2023-04-03T01:09:58;11.10;9.50;7.20
42002;PMS7003;27693;50.506;30.832;2023-04-03T01:11:03;13.50;11.00;8.50
42002;PMS7003;27693;50.506;30.832;2023-04-03T01:12:19;11.45;8.64;6.64
42002;PMS7003;27693;50.506;30.832;2023-04-03T01:13:26;13.20;11.40;9.50
42002;PMS7003;27693;50.506;30.832;2023-04-03T01:14:30;11.00;9.50;7.80
42002;PMS7003;27693;50.506;30.832;2023-04-03T01:15:35;10.90;10.10;8.30
42002;PMS7003;27693;50.506;30.832;2023-04-03T01:16:38;13.00;10.91;8.09
42002;PMS7003;27693;50.506;30.832;2023-04-03T01:17:51;11.50;9.60;7.80
42002;PMS7003;27693;50.506;30.832;2023-04-03T01:18:55;15.70;11.60;8.30
42002;PMS7003;27693;50.506;30.832;2023-04-03T01:20:03;10.40;10.00;7.40
42002;PMS7003;27693;50.506;30.832;2023-04-03T01:22:50;10.60;8.50;7.20
42002;PMS7003;27693;50.506;30.832;2023-04-03T01:24:58;14.60;11.60;9.20
42002;PMS7003;27693;50.506;30.832;2023-04-03T01:26:01;9.30;7.20;6.70
42002;PMS7003;27693;50.506;30.832;2023-04-03T01:27:05;12.20;10.10;7.70
42002;PMS7003;27693;50.506;30.832;2023-04-03T01:28:11;12.80;10.70;7.90
42002;PMS7003;27693;50.506;30.832;2023-04-03T01:29:15;11.00;10.70;9.40
42002;PMS7003;27693;50.506;30.832;2023-04-03T01:30:19;12.90;10.10;7.90
42002;PMS7003;27693;50.506;30.832;2023-04-03T01:31:27;11.90;10.50;8.40
42002;PMS7003;27693;50.506;30.832;2023-04-03T01:32:36;15.80;12.20;10.20
42002;PMS7003;27693;50.506;30.832;2023-04-03T01:33:38;10.82;10.73;8.73
42002;PMS7003;27693;50.506;30.832;2023-04-03T01:34:41;14.60;12.40;10.10
42002;PMS7003;27693;50.506;30.832;2023-04-03T01:35:45;14.20;11.70;9.00
42002;PMS7003;27693;50.506;30.832;2023-04-03T01:36:49;17.70;14.10;11.10
42002;PMS7003;27693;50.506;30.832;2023-04-03T01:37:52;14.30;12.60;10.20
42002;PMS7003;27693;50.506;30.832;2023-04-03T01:38:55;13.70;11.70;8.60
42002;PMS7003;27693;50.506;30.832;2023-04-03T01:39:59;16.20;11.80;9.00
42002;PMS7003;27693;50.506;30.832;2023-04-03T01:41:02;13.70;12.50;9.00
42002;PMS7003;27693;50.506;30.832;2023-04-03T01:42:05;14.10;10.60;7.50
42002;PMS7003;27693;50.506;30.832;2023-04-03T01:43:09;13.40;11.40;8.90
42002;PMS7003;27693;50.506;30.832;2023-04-03T01:44:12;12.70;10.20;8.50
42002;PMS7003;27693;50.506;30.832;2023-04-03T01:45:15;13.90;11.40;9.20
42002;PMS7003;27693;50.506;30.832;2023-04-03T01:46:19;13.00;10.70;8.00
42002;PMS7003;27693;50.506;30.832;2023-04-03T01:47:22;12.40;10.30;8.50
42002;PMS7003;27693;50.506;30.832;2023-04-03T01:48:25;13.80;10.60;9.20
42002;PMS7003;27693;50.506;30.832;2023-04-03T01:49:29;12.10;10.90;8.60
42002;PMS7003;27693;50.506;30.832;2023-04-03T01:50:32;16.00;12.18;9.55
42002;PMS7003;27693;50.506;30.832;2023-04-03T01:51:35;11.90;9.50;7.90
42002;PMS7003;27693;50.506;30.832;2023-04-03T01:52:37;12.60;10.60;8.20
42002;PMS7003;27693;50.506;30.832;2023-04-03T01:53:40;12.40;10.60;8.40
42002;PMS7003;27693;50.506;30.832;2023-04-03T01:54:43;9.80;8.50;6.20
42002;PMS7003;27693;50.506;30.832;2023-04-03T01:55:45;13.40;11.00;8.90
42002;PMS7003;27693;50.506;30.832;2023-04-03T01:56:48;16.40;12.00;9.40
42002;PMS7003;27693;50.506;30.832;2023-04-03T01:57:50;13.90;12.00;9.50
42002;PMS7003;27693;50.506;30.832;2023-04-03T01:58:53;15.45;11.18;8.55
42002;PMS7003;27693;50.506;30.832;2023-04-03T01:59:55;14.00;12.10;9.10
42002;PMS7003;27693;50.506;30.832;2023-04-03T02:00:58;10.91;10.09;8.64
42002;PMS7003;27693;50.506;30.832;2023-04-03T02:02:01;12.50;10.90;9.10
42002;PMS7003;27693;50.506;30.832;2023-04-03T02:03:03;15.40;10.40;8.80
42002;PMS7003;27693;50.506;30.832;2023-04-03T02:04:06;12.60;11.10;9.10
42002;PMS7003;27693;50.506;30.832;2023-04-03T02:05:09;15.45;11.45;9.09
42002;PMS7003;27693;50.506;30.832;2023-04-03T02:06:12;10.70;10.30;8.10
42002;PMS7003;27693;50.506;30.832;2023-04-03T02:07:14;13.10;10.60;7.90
42002;PMS7003;27693;50.506;30.832;2023-04-03T02:08:19;11.30;10.30;8.80
42002;PMS7003;27693;50.506;30.832;2023-04-03T02:09:21;12.20;10.60;8.70
42002;PMS7003;27693;50.506;30.832;2023-04-03T02:10:29;11.70;10.50;8.20
42002;PMS7003;27693;50.506;30.832;2023-04-03T02:11:32;13.40;10.30;7.80
42002;PMS7003;27693;50.506;30.832;2023-04-03T02:12:35;12.00;10.40;8.10
42002;PMS7003;27693;50.506;30.832;2023-04-03T02:13:37;11.70;11.30;9.60
42002;PMS7003;27693;50.506;30.832;2023-04-03T02:14:40;14.20;10.70;8.70
42002;PMS7003;27693;50.506;30.832;2023-04-03T02:15:45;13.20;11.40;8.30
42002;PMS7003;27693;50.506;30.832;2023-04-03T02:16:51;13.50;11.50;9.30
42002;PMS7003;27693;50.506;30.832;2023-04-03T02:17:56;10.90;9.10;7.10
42002;PMS7003;27693;50.506;30.832;2023-04-03T02:18:59;15.82;12.27;9.73
42002;PMS7003;27693;50.506;30.832;2023-04-03T02:20:02;10.70;9.80;7.70
42002;PMS7003;27693;50.506;30.832;2023-04-03T02:21:07;13.70;11.70;9.30
42002;PMS7003;27693;50.506;30.832;2023-04-03T02:22:10;11.50;10.10;7.90
42002;PMS7003;27693;50.506;30.832;2023-04-03T02:23:12;13.60;11.10;8.50
42002;PMS7003;27693;50.506;30.832;2023-04-03T02:24:15;13.50;11.50;9.40
42002;PMS7003;27693;50.506;30.832;2023-04-03T02:25:17;13.40;12.00;9.00
42002;PMS7003;27693;50.506;30.832;2023-04-03T02:26:20;13.20;13.20;9.80
42002;PMS7003;27693;50.506;30.832;2023-04-03T02:27:22;14.20;12.70;9.10
42002;PMS7003;27693;50.506;30.832;2023-04-03T02:28:25;15.60;12.70;9.20
42002;PMS7003;27693;50.506;30.832;2023-04-03T02:29:27;12.70;11.80;8.50
42002;PMS7003;27693;50.506;30.832;2023-04-03T02:30:30;14.70;11.90;9.50
42002;PMS7003;27693;50.506;30.832;2023-04-03T02:31:33;12.70;11.40;8.50
42002;PMS7003;27693;50.506;30.832;2023-04-03T02:32:35;15.64;11.64;8.73
42002;PMS7003;27693;50.506;30.832;2023-04-03T02:33:38;12.90;10.30;8.50
42002;PMS7003;27693;50.506;30.832;2023-04-03T02:34:42;12.10;10.80;8.60
42002;PMS7003;27693;50.506;30.832;2023-04-03T02:35:46;13.80;12.00;9.80
42002;PMS7003;27693;50.506;30.832;2023-04-03T02:36:51;14.20;11.50;9.00
42002;PMS7003;27693;50.506;30.832;2023-04-03T02:37:54;12.30;11.90;8.80
42002;PMS7003;27693;50.506;30.832;2023-04-03T02:38:59;16.80;12.10;9.40
42002;PMS7003;27693;50.506;30.832;2023-04-03T02:40:01;15.10;12.00;9.30
42002;PMS7003;27693;50.506;30.832;2023-04-03T02:41:05;13.80;12.00;9.70
42002;PMS7003;27693;50.506;30.832;2023-04-03T02:42:10;12.80;11.50;9.20
42002;PMS7003;27693;50.506;30.832;2023-04-03T02:43:12;13.00;11.90;8.60
42002;PMS7003;27693;50.506;30.832;2023-04-03T02:44:15;10.60;9.90;8.40
42002;PMS7003;27693;50.506;30.832;2023-04-03T02:45:17;13.60;10.20;7.70
42002;PMS7003;27693;50.506;30.832;2023-04-03T02:46:22;14.80;13.40;9.70
42002;PMS7003;27693;50.506;30.832;2023-04-03T02:47:24;13.20;11.10;8.30
42002;PMS7003;27693;50.506;30.832;2023-04-03T02:48:26;14.00;11.50;8.70
42002;PMS7003;27693;50.506;30.832;2023-04-03T02:49:30;12.90;11.90;9.50
42002;PMS7003;27693;50.506;30.832;2023-04-03T02:50:32;12.00;9.91;8.27
42002;PMS7003;27693;50.506;30.832;2023-04-03T02:51:36;14.20;11.70;8.70
42002;PMS7003;27693;50.506;30.832;2023-04-03T02:52:38;13.60;10.60;8.00
42002;PMS7003;27693;50.506;30.832;2023-04-03T02:53:41;16.45;12.73;9.55
42002;PMS7003;27693;50.506;30.832;2023-04-03T02:54:45;11.90;10.80;9.10
42002;PMS7003;27693;50.506;30.832;2023-04-03T02:55:48;15.60;9.40;7.30
42002;PMS7003;27693;50.506;30.832;2023-04-03T02:56:52;11.80;11.30;8.60
42002;PMS7003;27693;50.506;30.832;2023-04-03T02:57:56;12.70;11.10;8.10
42002;PMS7003;27693;50.506;30.832;2023-04-03T02:58:59;15.30;11.90;9.30
42002;PMS7003;27693;50.506;30.832;2023-04-03T03:00:03;13.40;11.30;9.20
42002;PMS7003;27693;50.506;30.832;2023-04-03T03:01:06;13.40;12.00;9.40
42002;PMS7003;27693;50.506;30.832;2023-04-03T03:02:09;10.90;9.00;7.50
42002;PMS7003;27693;50.506;30.832;2023-04-03T03:03:12;13.90;11.40;9.50
42002;PMS7003;27693;50.506;30.832;2023-04-03T03:04:16;12.00;9.40;7.70
42002;PMS7003;27693;50.506;30.832;2023-04-03T03:05:19;11.80;11.30;9.00
42002;PMS7003;27693;50.506;30.832;2023-04-03T03:06:23;14.40;12.40;9.70
42002;PMS7003;27693;50.506;30.832;2023-04-03T03:07:27;12.70;11.40;9.00
42002;PMS7003;27693;50.506;30.832;2023-04-03T03:08:29;14.90;11.20;8.80
42002;PMS7003;27693;50.506;30.832;2023-04-03T03:09:32;12.60;11.70;9.10
42002;PMS7003;27693;50.506;30.832;2023-04-03T03:10:34;12.90;11.60;9.40
42002;PMS7003;27693;50.506;30.832;2023-04-03T03:11:37;11.18;11.18;9.55
42002;PMS7003;27693;50.506;30.832;2023-04-03T03:12:40;14.60;10.40;7.60
42002;PMS7003;27693;50.506;30.832;2023-04-03T03:13:42;13.30;11.50;9.50
42002;PMS7003;27693;50.506;30.832;2023-04-03T03:14:44;14.20;11.40;9.20
42002;PMS7003;27693;50.506;30.832;2023-04-03T03:15:46;14.40;11.60;8.90
42002;PMS7003;27693;50.506;30.832;2023-04-03T03:16:49;13.18;12.09;9.55
42002;PMS7003;27693;50.506;30.832;2023-04-03T03:17:51;12.70;12.00;9.40
42002;PMS7003;27693;50.506;30.832;2023-04-03T03:18:54;14.55;10.09;8.00
42002;PMS7003;27693;50.506;30.832;2023-04-03T03:19:59;14.20;12.00;9.30
42002;PMS7003;27693;50.506;30.832;2023-04-03T03:21:03;15.50;12.20;9.80
42002;PMS7003;27693;50.506;30.832;2023-04-03T03:22:06;16.40;11.90;9.70
42002;PMS7003;27693;50.506;30.832;2023-04-03T03:23:09;15.30;10.60;9.20
42002;PMS7003;27693;50.506;30.832;2023-04-03T03:24:11;13.10;12.20;8.70
42002;PMS7003;27693;50.506;30.832;2023-04-03T03:25:13;10.90;10.40;7.90
42002;PMS7003;27693;50.506;30.832;2023-04-03T03:26:16;14.70;13.70;9.80
42002;PMS7003;27693;50.506;30.832;2023-04-03T03:27:19;13.91;12.09;9.55
42002;PMS7003;27693;50.506;30.832;2023-04-03T03:28:21;13.40;13.20;10.00
42002;PMS7003;27693;50.506;30.832;2023-04-03T03:29:24;12.80;11.80;9.50
42002;PMS7003;27693;50.506;30.832;2023-04-03T03:30:27;13.90;12.20;9.50
42002;PMS7003;27693;50.506;30.832;2023-04-03T03:31:32;14.70;11.80;9.90
42002;PMS7003;27693;50.506;30.832;2023-04-03T03:32:34;16.50;12.20;10.40
42002;PMS7003;27693;50.506;30.832;2023-04-03T03:33:37;16.50;13.20;9.60
42002;PMS7003;27693;50.506;30.832;2023-04-03T03:34:39;14.10;13.40;10.20
42002;PMS7003;27693;50.506;30.832;2023-04-03T03:35:42;14.30;12.50;9.40
42002;PMS7003;27693;50.506;30.832;2023-04-03T03:36:45;12.64;11.18;9.18
42002;PMS7003;27693;50.506;30.832;2023-04-03T03:37:47;16.20;12.90;10.30
42002;PMS7003;27693;50.506;30.832;2023-04-03T03:38:50;14.18;12.18;10.91
42002;PMS7003;27693;50.506;30.832;2023-04-03T03:39:52;13.90;10.90;8.60
42002;PMS7003;27693;50.506;30.832;2023-04-03T03:40:55;16.50;14.30;11.10
42002;PMS7003;27693;50.506;30.832;2023-04-03T03:41:58;15.00;12.90;10.90
42002;PMS7003;27693;50.506;30.832;2023-04-03T03:43:01;15.55;13.09;10.55
42002;PMS7003;27693;50.506;30.832;2023-04-03T03:44:04;10.82;10.45;7.82
42002;PMS7003;27693;50.506;30.832;2023-04-03T03:45:08;14.80;13.10;10.10
42002;PMS7003;27693;50.506;30.832;2023-04-03T03:46:12;18.10;13.30;9.80
42002;PMS7003;27693;50.506;30.832;2023-04-03T03:47:14;16.10;14.00;11.20
42002;PMS7003;27693;50.506;30.832;2023-04-03T03:48:17;14.30;13.10;10.60
42002;PMS7003;27693;50.506;30.832;2023-04-03T03:49:20;15.00;12.45;9.55
42002;PMS7003;27693;50.506;30.832;2023-04-03T03:50:22;12.90;12.30;10.20
42002;PMS7003;27693;50.506;30.832;2023-04-03T03:51:25;17.60;15.30;11.70
42002;PMS7003;27693;50.506;30.832;2023-04-03T03:52:28;14.45;12.91;10.27
42002;PMS7003;27693;50.506;30.832;2023-04-03T03:53:32;14.70;12.60;10.40
42002;PMS7003;27693;50.506;30.832;2023-04-03T03:54:36;13.40;12.00;10.10
42002;PMS7003;27693;50.506;30.832;2023-04-03T03:55:40;17.70;15.00;11.50
42002;PMS7003;27693;50.506;30.832;2023-04-03T03:56:43;18.00;15.80;11.80
42002;PMS7003;27693;50.506;30.832;2023-04-03T03:57:47;15.60;13.80;9.80
42002;PMS7003;27693;50.506;30.832;2023-04-03T03:58:50;17.30;14.40;11.20
42002;PMS7003;27693;50.506;30.832;2023-04-03T03:59:53;15.30;14.80;11.30
42002;PMS7003;27693;50.506;30.832;2023-04-03T04:00:56;16.18;13.55;11.45
42002;PMS7003;27693;50.506;30.832;2023-04-03T04:02:01;15.30;14.30;11.60
42002;PMS7003;27693;50.506;30.832;2023-04-03T04:03:04;17.20;14.90;10.80
42002;PMS7003;27693;50.506;30.832;2023-04-03T04:04:07;16.30;14.60;10.70
42002;PMS7003;27693;50.506;30.832;2023-04-03T04:05:09;16.50;14.50;10.90
42002;PMS7003;27693;50.506;30.832;2023-04-03T04:06:12;16.55;14.27;11.09
42002;PMS7003;27693;50.506;30.832;2023-04-03T04:07:15;15.80;14.30;10.60
42002;PMS7003;27693;50.506;30.832;2023-04-03T04:08:18;14.20;13.00;10.10
42002;PMS7003;27693;50.506;30.832;2023-04-03T04:09:22;16.50;14.40;11.30
42002;PMS7003;27693;50.506;30.832;2023-04-03T04:10:24;17.10;15.40;12.20
42002;PMS7003;27693;50.506;30.832;2023-04-03T04:11:27;16.70;14.50;11.10
42002;PMS7003;27693;50.506;30.832;2023-04-03T04:12:30;17.40;16.00;12.50
42002;PMS7003;27693;50.506;30.832;2023-04-03T04:13:32;19.20;15.80;12.80
42002;PMS7003;27693;50.506;30.832;2023-04-03T04:14:35;20.00;17.00;13.10
42002;PMS7003;27693;50.506;30.832;2023-04-03T04:15:40;15.40;13.20;9.70
42002;PMS7003;27693;50.506;30.832;2023-04-03T04:16:42;17.10;16.00;12.50
42002;PMS7003;27693;50.506;30.832;2023-04-03T04:17:47;15.20;14.10;10.60
42002;PMS7003;27693;50.506;30.832;2023-04-03T04:18:50;18.80;16.00;12.50
42002;PMS7003;27693;50.506;30.832;2023-04-03T04:19:54;13.30;11.40;7.80
42002;PMS7003;27693;50.506;30.832;2023-04-03T04:20:59;15.00;13.40;11.20
42002;PMS7003;27693;50.506;30.832;2023-04-03T04:22:02;19.18;15.55;12.09
42002;PMS7003;27693;50.506;30.832;2023-04-03T04:23:06;18.90;14.70;10.30
42002;PMS7003;27693;50.506;30.832;2023-04-03T04:24:09;14.20;14.20;11.90
42002;PMS7003;27693;50.506;30.832;2023-04-03T04:25:13;13.20;13.20;10.40
42002;PMS7003;27693;50.506;30.832;2023-04-03T04:26:16;14.70;12.90;9.50
42002;PMS7003;27693;50.506;30.832;2023-04-03T04:27:18;13.60;12.70;9.00
42002;PMS7003;27693;50.506;30.832;2023-04-03T04:28:21;14.10;13.70;10.70
42002;PMS7003;27693;50.506;30.832;2023-04-03T04:29:25;15.10;11.20;8.20
42002;PMS7003;27693;50.506;30.832;2023-04-03T04:30:28;15.10;13.40;10.70
42002;PMS7003;27693;50.506;30.832;2023-04-03T04:31:31;10.10;8.80;5.90
42002;PMS7003;27693;50.506;30.832;2023-04-03T04:32:34;16.91;16.18;11.18
42002;PMS7003;27693;50.506;30.832;2023-04-03T04:33:38;12.50;10.40;8.50
42002;PMS7003;27693;50.506;30.832;2023-04-03T04:34:42;17.60;14.60;10.90
42002;PMS7003;27693;50.506;30.832;2023-04-03T04:35:46;15.64;13.82;10.82
42002;PMS7003;27693;50.506;30.832;2023-04-03T04:36:49;22.00;20.30;15.70
42002;PMS7003;27693;50.506;30.832;2023-04-03T04:37:52;17.00;14.50;11.30
42002;PMS7003;27693;50.506;30.832;2023-04-03T04:38:55;18.30;15.70;11.80
42002;PMS7003;27693;50.506;30.832;2023-04-03T04:40:00;16.10;12.50;10.80
42002;PMS7003;27693;50.506;30.832;2023-04-03T04:41:04;15.50;15.00;11.60
42002;PMS7003;27693;50.506;30.832;2023-04-03T04:42:07;15.80;13.20;11.20
42002;PMS7003;27693;50.506;30.832;2023-04-03T04:43:12;20.90;16.30;13.20
42002;PMS7003;27693;50.506;30.832;2023-04-03T04:44:16;18.00;17.00;12.70
42002;PMS7003;27693;50.506;30.832;2023-04-03T04:45:19;17.90;15.20;12.70
42002;PMS7003;27693;50.506;30.832;2023-04-03T04:46:22;21.50;18.00;14.50
42002;PMS7003;27693;50.506;30.832;2023-04-03T04:47:28;29.50;24.80;18.40
42002;PMS7003;27693;50.506;30.832;2023-04-03T04:48:31;19.30;18.70;15.20
42002;PMS7003;27693;50.506;30.832;2023-04-03T04:49:34;19.20;15.70;13.00
42002;PMS7003;27693;50.506;30.832;2023-04-03T04:50:37;18.50;16.90;12.70
42002;PMS7003;27693;50.506;30.832;2023-04-03T04:51:41;18.50;16.50;11.90
42002;PMS7003;27693;50.506;30.832;2023-04-03T04:52:45;15.70;14.00;11.00
42002;PMS7003;27693;50.506;30.832;2023-04-03T04:53:48;21.27;17.09;13.00
42002;PMS7003;27693;50.506;30.832;2023-04-03T04:54:51;17.90;16.10;11.70
42002;PMS7003;27693;50.506;30.832;2023-04-03T04:55:54;18.27;16.27;12.00
42002;PMS7003;27693;50.506;30.832;2023-04-03T04:56:57;16.00;15.20;11.40
42002;PMS7003;27693;50.506;30.832;2023-04-03T04:58:01;17.80;15.90;11.50
42002;PMS7003;27693;50.506;30.832;2023-04-03T04:59:04;17.60;15.60;11.50
42002;PMS7003;27693;50.506;30.832;2023-04-03T05:00:09;22.30;15.80;11.60
42002;PMS7003;27693;50.506;30.832;2023-04-03T05:01:13;19.50;16.00;12.70
42002;PMS7003;27693;50.506;30.832;2023-04-03T05:02:17;15.50;11.50;8.70
42002;PMS7003;27693;50.506;30.832;2023-04-03T05:03:21;15.20;12.30;10.10
42002;PMS7003;27693;50.506;30.832;2023-04-03T05:04:24;15.20;14.60;10.90
42002;PMS7003;27693;50.506;30.832;2023-04-03T05:05:29;16.20;13.50;10.50
42002;PMS7003;27693;50.506;30.832;2023-04-03T05:06:31;21.70;17.90;12.60
42002;PMS7003;27693;50.506;30.832;2023-04-03T05:07:34;16.10;15.30;11.60
42002;PMS7003;27693;50.506;30.832;2023-04-03T05:08:37;18.50;14.70;12.50
42002;PMS7003;27693;50.506;30.832;2023-04-03T05:09:40;16.64;14.91;11.00
42002;PMS7003;27693;50.506;30.832;2023-04-03T05:10:44;16.50;15.70;11.50
42002;PMS7003;27693;50.506;30.832;2023-04-03T05:11:48;15.00;13.80;10.90
42002;PMS7003;27693;50.506;30.832;2023-04-03T05:12:51;15.27;14.82;11.45
42002;PMS7003;27693;50.506;30.832;2023-04-03T05:13:53;16.00;13.70;10.30
42002;PMS7003;27693;50.506;30.832;2023-04-03T05:14:56;16.64;13.64;11.00
42002;PMS7003;27693;50.506;30.832;2023-04-03T05:15:59;15.80;14.10;10.90
42002;PMS7003;27693;50.506;30.832;2023-04-03T05:17:03;16.50;13.90;10.10
42002;PMS7003;27693;50.506;30.832;2023-04-03T05:18:08;16.00;13.90;11.90
42002;PMS7003;27693;50.506;30.832;2023-04-03T05:19:11;16.30;13.20;11.30
42002;PMS7003;27693;50.506;30.832;2023-04-03T05:20:14;15.73;14.45;12.27
42002;PMS7003;27693;50.506;30.832;2023-04-03T05:21:16;14.70;13.10;10.90
42002;PMS7003;27693;50.506;30.832;2023-04-03T05:22:20;16.40;13.10;9.70
42002;PMS7003;27693;50.506;30.832;2023-04-03T05:23:23;15.60;14.50;11.60
42002;PMS7003;27693;50.506;30.832;2023-04-03T05:24:26;14.30;13.60;10.50
42002;PMS7003;27693;50.506;30.832;2023-04-03T05:25:31;15.00;13.50;10.70
42002;PMS7003;27693;50.506;30.832;2023-04-03T05:26:34;14.70;13.40;10.20
42002;PMS7003;27693;50.506;30.832;2023-04-03T05:27:37;15.10;14.30;11.20
42002;PMS7003;27693;50.506;30.832;2023-04-03T05:28:39;13.70;13.20;10.40
42002;PMS7003;27693;50.506;30.832;2023-04-03T05:29:42;15.50;14.50;11.00
42002;PMS7003;27693;50.506;30.832;2023-04-03T05:30:53;17.00;14.10;11.30
42002;PMS7003;27693;50.506;30.832;2023-04-03T05:31:57;15.00;13.40;10.70
42002;PMS7003;27693;50.506;30.832;2023-04-03T05:33:00;14.27;13.36;11.18
42002;PMS7003;27693;50.506;30.832;2023-04-03T05:34:05;15.40;12.60;10.80
42002;PMS7003;27693;50.506;30.832;2023-04-03T05:35:09;15.90;13.90;10.40
42002;PMS7003;27693;50.506;30.832;2023-04-03T05:36:13;15.30;13.80;11.20
42002;PMS7003;27693;50.506;30.832;2023-04-03T05:37:18;15.10;13.50;10.40
42002;PMS7003;27693;50.506;30.832;2023-04-03T05:38:21;15.50;14.10;11.30
42002;PMS7003;27693;50.506;30.832;2023-04-03T05:39:23;17.10;13.50;10.60
42002;PMS7003;27693;50.506;30.832;2023-04-03T05:40:27;15.80;13.80;11.60
42002;PMS7003;27693;50.506;30.832;2023-04-03T05:41:31;16.30;14.10;11.20
42002;PMS7003;27693;50.506;30.832;2023-04-03T05:42:34;16.00;13.60;11.70
42002;PMS7003;27693;50.506;30.832;2023-04-03T05:43:37;18.90;14.60;12.20
42002;PMS7003;27693;50.506;30.832;2023-04-03T05:44:42;18.90;16.30;12.80
42002;PMS7003;27693;50.506;30.832;2023-04-03T05:45:47;16.50;15.70;12.40
42002;PMS7003;27693;50.506;30.832;2023-04-03T05:46:50;15.50;14.10;10.30
42002;PMS7003;27693;50.506;30.832;2023-04-03T05:47:54;20.70;17.80;14.30
42002;PMS7003;27693;50.506;30.832;2023-04-03T05:48:58;20.10;17.40;13.70
42002;PMS7003;27693;50.506;30.832;2023-04-03T05:50:03;19.60;17.80;14.00
42002;PMS7003;27693;50.506;30.832;2023-04-03T05:51:09;18.50;15.90;13.00
42002;PMS7003;27693;50.506;30.832;2023-04-03T05:52:22;17.30;15.10;11.40
42002;PMS7003;27693;50.506;30.832;2023-04-03T05:53:29;16.40;13.10;10.30
42002;PMS7003;27693;50.506;30.832;2023-04-03T05:54:36;16.30;15.30;12.00
42002;PMS7003;27693;50.506;30.832;2023-04-03T05:55:43;11.00;10.80;8.00
42002;PMS7003;27693;50.506;30.832;2023-04-03T05:56:47;16.10;15.50;10.90
42002;PMS7003;27693;50.506;30.832;2023-04-03T05:57:49;13.70;11.90;10.40
42002;PMS7003;27693;50.506;30.832;2023-04-03T05:58:51;19.20;15.20;11.50
42002;PMS7003;27693;50.506;30.832;2023-04-03T05:59:54;16.55;15.91;11.64